| time (UTC) | temp F | wind direction | speed knots | gust knots | rain 1hr in | rain 24hr in | rain mn in | humidity % | barometer mb |
| 20260504050504 | 53 | 289 | 0.9 | 2.6 | 0.00 | 0.03 | 0.00 | 96 | 1012.2 |
| 20260504050004 | 53 | 289 | 0.0 | 0.9 | 0.00 | 0.03 | 0.00 | 96 | 1012.2 |
| 20260504045503 | 53 | 289 | 0.0 | 0.0 | 0.00 | 0.03 | 0.00 | 96 | 1012.2 |
| 20260504045003 | 53 | 289 | 0.0 | 0.9 | 0.00 | 0.03 | 0.00 | 96 | 1012.2 |
| 20260504044512 | 53 | 289 | 0.0 | 0.9 | 0.00 | 0.03 | 0.00 | 96 | 1012.2 |
| 20260504044005 | 53 | 289 | 0.0 | 1.7 | 0.00 | 0.03 | 0.00 | 96 | 1012.4 |
| 20260504043503 | 53 | 289 | 0.0 | 1.7 | 0.00 | 0.03 | 0.00 | 96 | 1012.5 |
| 20260504043012 | 54 | 289 | 0.0 | 3.5 | 0.00 | 0.03 | 0.00 | 96 | 1012.4 |
| 20260504042507 | 54 | 289 | 0.0 | 3.5 | 0.00 | 0.03 | 0.00 | 96 | 1012.4 |
| 20260504042006 | 54 | 281 | 0.0 | 2.6 | 0.00 | 0.03 | 0.00 | 96 | 1012.5 |
| 20260504041511 | 54 | 281 | 0.0 | 3.5 | 0.00 | 0.03 | 0.00 | 96 | 1012.6 |
| 20260504041003 | 54 | 300 | 0.0 | 3.5 | 0.00 | 0.03 | 0.00 | 96 | 1012.6 |
| 20260504040509 | 54 | 292 | 0.0 | 2.6 | 0.00 | 0.03 | 0.00 | 96 | 1012.7 |
| 20260504040022 | 54 | 281 | 0.0 | 6.1 | 0.00 | 0.03 | 0.00 | 96 | 1012.6 |
| 20260504035505 | 54 | 297 | 0.9 | 7.0 | 0.00 | 0.03 | 0.00 | 96 | 1012.7 |
| 20260504035003 | 54 | 284 | 2.6 | 7.0 | 0.00 | 0.03 | 0.00 | 96 | 1012.8 |
| 20260504034503 | 55 | 306 | 2.6 | 7.0 | 0.00 | 0.03 | 0.00 | 96 | 1012.7 |
| 20260504034003 | 55 | 269 | 0.0 | 4.3 | 0.00 | 0.03 | 0.00 | 97 | 1012.7 |
| 20260504033503 | 55 | 305 | 0.0 | 2.6 | 0.00 | 0.03 | 0.00 | 97 | 1012.7 |
| 20260504033007 | 55 | 305 | 0.0 | 3.5 | 0.00 | 0.03 | 0.00 | 97 | 1012.6 |
| 20260504032503 | 55 | 305 | 0.0 | 6.1 | 0.00 | 0.03 | 0.00 | 97 | 1012.5 |
| 20260504032003 | 55 | 323 | 2.6 | 7.8 | 0.00 | 0.03 | 0.00 | 97 | 1012.5 |
| 20260504031514 | 55 | 296 | 1.7 | 8.7 | 0.00 | 0.03 | 0.00 | 97 | 1012.6 |
| 20260504031005 | 55 | 277 | 4.3 | 11.3 | 0.00 | 0.03 | 0.00 | 97 | 1012.7 |
| 20260504030505 | 55 | 287 | 6.1 | 11.3 | 0.00 | 0.03 | 0.00 | 97 | 1012.6 |
| 20260504030009 | 56 | 246 | 1.7 | 6.1 | 0.00 | 0.03 | 0.00 | 97 | 1012.5 |
| 20260504025507 | 56 | 302 | 1.7 | 5.2 | 0.00 | 0.03 | 0.00 | 97 | 1012.5 |
| 20260504025007 | 56 | 271 | 0.0 | 3.5 | 0.00 | 0.03 | 0.00 | 97 | 1012.5 |
| 20260504024507 | 55 | 274 | 0.9 | 3.5 | 0.00 | 0.03 | 0.00 | 97 | 1012.5 |
| 20260504024006 | 55 | 289 | 0.0 | 0.9 | 0.00 | 0.03 | 0.00 | 97 | 1012.5 |
| 20260504023506 | 55 | 289 | 0.0 | 1.7 | 0.00 | 0.03 | 0.00 | 97 | 1012.4 |
| 20260504023006 | 55 | 289 | 0.0 | 1.7 | 0.00 | 0.03 | 0.00 | 97 | 1012.2 |
| 20260504022504 | 55 | 289 | 0.0 | 0.9 | 0.00 | 0.03 | 0.00 | 97 | 1012.1 |
| 20260504022007 | 55 | 289 | 0.0 | 0.9 | 0.00 | 0.03 | 0.00 | 97 | 1012.0 |
| 20260504021509 | 55 | 289 | 0.0 | 0.9 | 0.00 | 0.03 | 0.00 | 97 | 1012.0 |
| 20260504021003 | 55 | 289 | 0.0 | 0.9 | 0.00 | 0.03 | 0.00 | 97 | 1011.9 |
| 20260504020506 | 55 | 289 | 0.0 | 1.7 | 0.00 | 0.03 | 0.00 | 97 | 1011.8 |
| 20260504020028 | 55 | 289 | 0.0 | 1.7 | 0.00 | 0.03 | 0.00 | 97 | 1011.8 |
| 20260504015505 | 55 | 289 | 0.0 | 1.7 | 0.00 | 0.03 | 0.00 | 96 | 1011.8 |
| 20260504015005 | 55 | 289 | 0.0 | 2.6 | 0.00 | 0.03 | 0.00 | 97 | 1011.8 |
| 20260504014520 | 55 | 288 | 0.0 | 2.6 | 0.00 | 0.03 | 0.00 | 97 | 1011.9 |
| 20260504014009 | 55 | 77 | 0.0 | 0.0 | 0.00 | 0.03 | 0.00 | 97 | 1011.6 |
| 20260504013513 | 54 | 77 | 0.0 | 0.0 | 0.00 | 0.03 | 0.00 | 96 | 1011.5 |
| 20260504013012 | 54 | 77 | 0.0 | 0.0 | 0.00 | 0.03 | 0.00 | 96 | 1011.6 |
| 20260504012510 | 54 | 77 | 0.0 | 0.0 | 0.00 | 0.03 | 0.00 | 96 | 1011.6 |
| 20260504012011 | 55 | 77 | 0.0 | 0.0 | 0.00 | 0.03 | 0.00 | 96 | 1011.5 |
| 20260504011509 | 55 | 77 | 0.0 | 0.0 | 0.00 | 0.02 | 0.00 | 96 | 1011.5 |
| 20260504011005 | 55 | 77 | 0.0 | 0.0 | 0.00 | 0.02 | 0.00 | 96 | 1011.5 |
| 20260504010509 | 55 | 77 | 0.0 | 0.0 | 0.00 | 0.02 | 0.00 | 96 | 1011.5 |
| 20260504010014 | 55 | 77 | 0.0 | 0.0 | 0.00 | 0.02 | 0.00 | 96 | 1011.5 |
| 20260504005507 | 55 | 77 | 0.0 | 0.0 | 0.00 | 0.02 | 0.00 | 96 | 1011.4 |
| 20260504005007 | 55 | 77 | 0.0 | 0.9 | 0.00 | 0.02 | 0.00 | 96 | 1011.5 |
| 20260504004520 | 55 | 77 | 0.0 | 0.9 | 0.00 | 0.02 | 0.00 | 96 | 1011.5 |
| 20260504004007 | 55 | 77 | 0.0 | 0.0 | 0.00 | 0.02 | 0.00 | 96 | 1011.6 |
| 20260504003508 | 55 | 77 | 0.0 | 0.0 | 0.00 | 0.02 | 0.00 | 96 | 1011.6 |
| 20260504003023 | 55 | 77 | 0.0 | 0.0 | 0.00 | 0.02 | 0.00 | 96 | 1011.6 |
| 20260504002508 | 55 | 77 | 0.0 | 0.0 | 0.00 | 0.02 | 0.00 | 96 | 1011.6 |
| 20260504002003 | 55 | 77 | 0.0 | 0.0 | 0.00 | 0.02 | 0.00 | 96 | 1011.6 |
| 20260504001525 | 55 | 77 | 0.0 | 0.0 | 0.00 | 0.02 | 0.00 | 96 | 1011.6 |
| 20260504001008 | 55 | 77 | 0.0 | 0.0 | 0.00 | 0.02 | 0.00 | 96 | 1011.7 |
| 20260504000509 | 55 | 77 | 0.0 | 0.0 | 0.00 | 0.02 | 0.00 | 96 | 1011.7 |
| 20260504000012 | 55 | 77 | 0.0 | 0.0 | 0.00 | 0.02 | 0.00 | 96 | 1011.7 |
| 20260503235503 | 55 | 77 | 0.0 | 0.0 | 0.00 | 0.02 | 0.00 | 95 | 1011.8 |
| 20260503235006 | 55 | 77 | 0.0 | 0.0 | 0.00 | 0.02 | 0.00 | 95 | 1011.8 |
| 20260503234515 | 55 | 77 | 0.0 | 0.0 | 0.00 | 0.02 | 0.00 | 95 | 1011.7 |
| 20260503234007 | 55 | 77 | 0.0 | 0.0 | 0.00 | 0.02 | 0.00 | 95 | 1011.8 |
| 20260503233503 | 55 | 77 | 0.0 | 0.9 | 0.00 | 0.02 | 0.00 | 95 | 1011.8 |
| 20260503233018 | 55 | 77 | 0.0 | 0.9 | 0.00 | 0.02 | 0.00 | 95 | 1011.7 |
| 20260503232509 | 55 | 77 | 0.0 | 0.0 | 0.00 | 0.02 | 0.00 | 95 | 1011.7 |
| 20260503232006 | 56 | 77 | 0.0 | 0.0 | 0.00 | 0.02 | 0.00 | 95 | 1011.8 |
| 20260503231505 | 56 | 77 | 0.0 | 0.0 | 0.00 | 0.02 | 0.00 | 94 | 1011.8 |
| 20260503231003 | 56 | 77 | 0.0 | 0.0 | 0.00 | 0.02 | 0.00 | 94 | 1011.9 |
| 20260503230507 | 56 | 77 | 0.0 | 0.0 | 0.00 | 0.02 | 0.00 | 95 | 1011.9 |
| 20260503230037 | 56 | 77 | 0.0 | 0.0 | 0.00 | 0.02 | 0.00 | 95 | 1011.9 |
| 20260503225504 | 56 | 77 | 0.0 | 0.0 | 0.00 | 0.02 | 0.00 | 94 | 1011.9 |
| 20260503225003 | 56 | 77 | 0.0 | 0.0 | 0.00 | 0.02 | 0.00 | 95 | 1011.9 |
| 20260503224522 | 56 | 77 | 0.0 | 0.0 | 0.00 | 0.02 | 0.00 | 95 | 1012.0 |
| 20260503224005 | 56 | 77 | 0.0 | 0.0 | 0.00 | 0.02 | 0.00 | 94 | 1012.0 |
| 20260503223507 | 56 | 77 | 0.0 | 0.0 | 0.00 | 0.02 | 0.00 | 94 | 1012.1 |
| 20260503223020 | 56 | 77 | 0.0 | 0.0 | 0.00 | 0.02 | 0.00 | 94 | 1012.1 |
| 20260503222506 | 57 | 77 | 0.0 | 0.0 | 0.00 | 0.02 | 0.00 | 94 | 1012.1 |
| 20260503222004 | 56 | 77 | 0.0 | 0.0 | 0.00 | 0.03 | 0.00 | 94 | 1012.1 |
| 20260503221525 | 57 | 77 | 0.0 | 0.9 | 0.00 | 0.03 | 0.00 | 94 | 1012.1 |
| 20260503221011 | 57 | 77 | 0.0 | 0.9 | 0.00 | 0.03 | 0.00 | 93 | 1012.2 |
| 20260503220506 | 57 | 77 | 0.0 | 0.9 | 0.00 | 0.03 | 0.00 | 93 | 1012.1 |
| 20260503220014 | 57 | 77 | 0.0 | 1.7 | 0.00 | 0.03 | 0.00 | 93 | 1012.0 |
| 20260503215502 | 57 | 77 | 0.0 | 1.7 | 0.00 | 0.03 | 0.03 | 93 | 1012.1 |
| 20260503215004 | 57 | 77 | 0.0 | 2.6 | 0.00 | 0.03 | 0.03 | 93 | 1012.1 |
| 20260503214526 | 57 | 77 | 0.0 | 2.6 | 0.00 | 0.03 | 0.03 | 93 | 1012.1 |
| 20260503214010 | 58 | 76 | 0.0 | 1.7 | 0.00 | 0.03 | 0.03 | 93 | 1012.1 |
| 20260503213504 | 58 | 76 | 0.0 | 0.9 | 0.00 | 0.03 | 0.03 | 93 | 1012.2 |
| 20260503213027 | 58 | 76 | 0.0 | 0.0 | 0.00 | 0.03 | 0.03 | 93 | 1012.4 |
| 20260503212508 | 58 | 76 | 0.0 | 0.0 | 0.00 | 0.03 | 0.03 | 93 | 1012.5 |
| 20260503212009 | 58 | 76 | 0.0 | 0.0 | 0.00 | 0.03 | 0.03 | 93 | 1012.5 |
| 20260503211523 | 58 | 76 | 0.0 | 0.0 | 0.00 | 0.03 | 0.03 | 93 | 1012.6 |
| 20260503211005 | 58 | 76 | 0.0 | 0.0 | 0.00 | 0.03 | 0.03 | 93 | 1012.7 |
| 20260503210507 | 58 | 76 | 0.0 | 0.9 | 0.00 | 0.03 | 0.03 | 93 | 1012.7 |
| 20260503210024 | 58 | 76 | 0.0 | 0.9 | 0.00 | 0.03 | 0.03 | 92 | 1012.8 |
| 20260503205507 | 58 | 76 | 0.0 | 0.0 | 0.00 | 0.03 | 0.03 | 92 | 1012.9 |
| 20260503205006 | 58 | 76 | 0.0 | 0.0 | 0.00 | 0.07 | 0.03 | 92 | 1012.9 |
| 20260503204520 | 58 | 76 | 0.0 | 0.0 | 0.00 | 0.14 | 0.03 | 91 | 1012.9 |
| 20260503204005 | 58 | 76 | 0.0 | 0.0 | 0.00 | 0.23 | 0.03 | 92 | 1012.9 |
| 20260503203505 | 58 | 76 | 0.0 | 0.0 | 0.00 | 0.37 | 0.03 | 91 | 1012.9 |
| 20260503203015 | 58 | 76 | 0.0 | 0.0 | 0.00 | 0.40 | 0.03 | 91 | 1012.9 |
| 20260503202506 | 58 | 76 | 0.0 | 0.9 | 0.00 | 0.40 | 0.03 | 92 | 1012.8 |
| 20260503202013 | 58 | 76 | 0.0 | 0.9 | 0.00 | 0.40 | 0.03 | 92 | 1012.6 |
| 20260503201519 | 58 | 76 | 0.0 | 0.9 | 0.00 | 0.41 | 0.03 | 92 | 1012.5 |
| 20260503201006 | 58 | 76 | 0.0 | 0.9 | 0.00 | 0.41 | 0.03 | 92 | 1012.6 |
| 20260503200509 | 58 | 76 | 0.0 | 0.9 | 0.00 | 0.42 | 0.03 | 92 | 1012.6 |
| 20260503200029 | 58 | 76 | 0.0 | 0.0 | 0.00 | 0.43 | 0.03 | 91 | 1012.6 |
| 20260503195505 | 58 | 75 | 0.0 | 0.0 | 0.00 | 0.43 | 0.03 | 91 | 1012.6 |
| 20260503195008 | 58 | 76 | 0.0 | 1.7 | 0.00 | 0.43 | 0.03 | 91 | 1012.6 |
| 20260503194526 | 58 | 76 | 0.0 | 1.7 | 0.00 | 0.44 | 0.03 | 91 | 1012.5 |
| 20260503194008 | 59 | 76 | 0.0 | 0.9 | 0.00 | 0.44 | 0.03 | 91 | 1012.5 |
| 20260503193509 | 59 | 76 | 0.0 | 0.9 | 0.00 | 0.44 | 0.03 | 91 | 1012.4 |
| 20260503193041 | 59 | 74 | 0.0 | 0.9 | 0.00 | 0.45 | 0.03 | 91 | 1012.4 |
| 20260503192505 | 59 | 65 | 0.0 | 2.6 | 0.00 | 0.46 | 0.03 | 91 | 1012.3 |
| 20260503192007 | 59 | 65 | 0.9 | 2.6 | 0.00 | 0.46 | 0.03 | 91 | 1012.1 |
| 20260503191533 | 59 | 130 | 0.0 | 1.7 | 0.00 | 0.47 | 0.03 | 90 | 1012.1 |
| 20260503191010 | 59 | 130 | 0.0 | 1.7 | 0.00 | 0.47 | 0.03 | 90 | 1012.1 |
| 20260503190505 | 59 | 130 | 0.0 | 0.0 | 0.00 | 0.48 | 0.03 | 89 | 1012.0 |
| 20260503190031 | 59 | 130 | 0.0 | 0.9 | 0.00 | 0.48 | 0.03 | 89 | 1012.0 |
| 20260503185507 | 59 | 130 | 0.0 | 2.6 | 0.00 | 0.48 | 0.03 | 89 | 1011.9 |
| 20260503185009 | 59 | 130 | 0.0 | 3.5 | 0.00 | 0.48 | 0.03 | 89 | 1011.8 |
| 20260503184520 | 59 | 81 | 0.9 | 3.5 | 0.00 | 0.48 | 0.03 | 89 | 1011.7 |
| 20260503184010 | 59 | 107 | 0.9 | 3.5 | 0.00 | 0.49 | 0.03 | 88 | 1011.8 |
| 20260503183510 | 60 | 25 | 0.0 | 2.6 | 0.00 | 0.49 | 0.03 | 88 | 1011.7 |
| 20260503183015 | 60 | 279 | 0.0 | 1.7 | 0.00 | 0.49 | 0.03 | 87 | 1011.6 |
| 20260503182505 | 60 | 279 | 0.0 | 1.7 | 0.00 | 0.49 | 0.03 | 87 | 1011.6 |
| 20260503182010 | 60 | 279 | 0.0 | 2.6 | 0.00 | 0.49 | 0.03 | 87 | 1011.6 |
| 20260503181539 | 60 | 279 | 0.0 | 2.6 | 0.00 | 0.49 | 0.03 | 87 | 1011.5 |
| 20260503181008 | 59 | 279 | 0.0 | 1.7 | 0.00 | 0.49 | 0.03 | 87 | 1011.6 |
| 20260503180507 | 59 | 279 | 0.0 | 2.6 | 0.00 | 0.49 | 0.03 | 86 | 1011.5 |
| 20260503180027 | 59 | 279 | 0.0 | 3.5 | 0.00 | 0.49 | 0.03 | 86 | 1011.6 |
| 20260503175507 | 59 | 279 | 0.9 | 3.5 | 0.00 | 0.49 | 0.03 | 87 | 1011.5 |
| 20260503175008 | 59 | 308 | 0.0 | 3.5 | 0.00 | 0.49 | 0.03 | 87 | 1011.5 |
| 20260503174522 | 59 | 308 | 0.9 | 3.5 | 0.00 | 0.49 | 0.03 | 86 | 1011.5 |
| 20260503174012 | 59 | 308 | 0.9 | 4.3 | 0.00 | 0.49 | 0.03 | 86 | 1011.5 |
| 20260503173506 | 59 | 308 | 0.0 | 4.3 | 0.00 | 0.48 | 0.02 | 87 | 1011.4 |
| 20260503173026 | 59 | 312 | 1.7 | 5.2 | 0.00 | 0.48 | 0.02 | 86 | 1011.3 |
| 20260503172510 | 59 | 312 | 1.7 | 5.2 | 0.00 | 0.48 | 0.02 | 86 | 1011.3 |
| 20260503172015 | 59 | 2 | 0.0 | 5.2 | 0.00 | 0.48 | 0.02 | 87 | 1011.3 |
| 20260503171523 | 59 | 352 | 1.7 | 5.2 | 0.00 | 0.48 | 0.02 | 86 | 1011.4 |
| 20260503171009 | 60 | 335 | 1.7 | 4.3 | 0.00 | 0.48 | 0.02 | 87 | 1011.4 |
| 20260503170510 | 60 | 356 | 1.7 | 4.3 | 0.00 | 0.48 | 0.02 | 88 | 1011.5 |
| 20260503151007 | 60 | 333 | 0.0 | 4.3 | 0.00 | 0.57 | 0.00 | 85 | 1011.7 |
| 20260503150503 | 61 | 40 | 1.7 | 7.8 | 0.00 | 0.62 | 0.00 | 82 | 1011.7 |
| 20260503131006 | 68 | 119 | 4.3 | 8.7 | 0.00 | 0.62 | 0.00 | 72 | 1012.5 |
| 20260503130504 | 68 | 89 | 3.5 | 7.8 | 0.00 | 0.62 | 0.00 | 73 | 1012.6 |
| 20260503110508 | 68 | 100 | 2.6 | 10.4 | 0.00 | 0.62 | 0.00 | 71 | 1013.9 |
| 20260503090508 | 62 | 267 | 0.0 | 4.3 | 0.00 | 0.62 | 0.00 | 84 | 1014.9 |
| 20260503081514 | 61 | 260 | 0.0 | 1.7 | 0.00 | 0.62 | 0.00 | 83 | 1014.5 |
| 20260503081007 | 61 | 260 | 0.0 | 0.9 | 0.00 | 0.62 | 0.00 | 83 | 1014.4 |
| 20260503080505 | 61 | 260 | 0.0 | 2.6 | 0.00 | 0.62 | 0.00 | 83 | 1014.5 |
| 20260503072512 | 58 | 175 | 0.0 | 0.9 | 0.00 | 0.62 | 0.00 | 95 | 1014.1 |
| 20260503072006 | 58 | 175 | 0.0 | 0.9 | 0.00 | 0.62 | 0.00 | 96 | 1014.1 |
| 20260503071529 | 57 | 175 | 0.0 | 0.0 | 0.00 | 0.62 | 0.00 | 96 | 1014.1 |
| 20260503071006 | 57 | 175 | 0.0 | 0.9 | 0.00 | 0.62 | 0.00 | 96 | 1014.2 |
| 20260503070509 | 57 | 175 | 0.0 | 0.9 | 0.00 | 0.62 | 0.00 | 96 | 1014.2 |